createdAt,value
2019-02-25T20:12:50.584Z,178.80
2019-02-25T20:16:28.095Z,197.60
2019-02-25T20:18:56.035Z,196.17
2019-02-25T20:21:27.211Z,187.80
2019-02-25T20:23:56.003Z,183.10
2019-02-25T20:26:25.265Z,175.10
2019-02-25T20:28:54.589Z,195.70
2019-02-25T20:31:23.010Z,195.67
2019-02-25T20:33:53.057Z,190.53
2019-02-25T20:36:46.509Z,185.47
2019-02-25T20:39:47.215Z,196.83
2019-02-25T20:42:21.466Z,186.37
2019-02-25T20:44:49.160Z,194.33
2019-02-25T20:47:19.191Z,202.80
2019-02-25T20:49:51.157Z,192.83
2019-02-25T20:52:20.222Z,206.20
2019-02-25T20:54:50.519Z,192.03
2019-02-25T20:57:19.961Z,190.70
2019-02-25T20:59:50.851Z,177.87
2019-02-25T21:02:21.123Z,197.33
2019-02-25T21:04:52.241Z,217.87
2019-02-25T21:07:21.710Z,197.17
2019-02-25T21:09:50.991Z,221.23
2019-02-25T21:12:20.300Z,179.73
2019-02-25T21:14:49.714Z,151.73
2019-02-25T21:17:19.117Z,166.73
2019-02-25T21:19:48.624Z,169.67
2019-02-25T21:22:17.976Z,141.80
2019-02-25T21:24:49.477Z,168.23
2019-02-25T21:27:18.278Z,157.60
2019-02-25T21:29:47.504Z,152.60
2019-02-25T21:32:17.456Z,132.37
2019-02-25T21:34:52.649Z,141.43
2019-02-25T21:37:21.364Z,122.07
2019-02-25T21:39:50.801Z,141.50
2019-02-25T21:42:23.043Z,126.13
2019-02-25T21:44:54.699Z,138.10
2019-02-25T21:47:24.213Z,139.90
2019-02-25T21:49:57.271Z,136.43
2019-02-25T21:52:25.919Z,138.00
2019-02-25T21:54:55.189Z,129.07
2019-02-25T21:57:24.501Z,150.67
2019-02-25T21:59:54.695Z,130.47
2019-02-25T22:02:24.852Z,162.53
2019-02-25T22:04:54.244Z,174.40
2019-02-25T22:07:24.985Z,162.40
2019-02-25T22:09:54.490Z,147.93
2019-02-25T22:12:23.798Z,142.20
2019-02-25T22:14:53.159Z,141.07
2019-02-25T22:17:24.556Z,159.07
2019-02-25T22:19:53.517Z,142.40
2019-02-25T22:22:26.203Z,141.23
2019-02-25T22:24:53.713Z,149.47
2019-02-25T22:27:23.125Z,129.27
2019-02-25T22:29:53.408Z,153.90
2019-02-25T22:32:22.640Z,150.73
2019-02-25T22:34:51.854Z,124.63
2019-02-25T22:37:22.766Z,135.40
2019-02-25T22:39:52.990Z,127.30
2019-02-25T22:42:25.289Z,129.37
2019-02-25T22:44:56.045Z,132.47
2019-02-25T22:47:25.537Z,135.60
2019-02-25T22:49:54.953Z,125.03
2019-02-25T22:52:26.270Z,151.17
2019-02-25T22:54:55.295Z,150.33
2019-02-25T22:57:25.683Z,148.90
2019-02-25T22:59:55.535Z,130.30
2019-02-25T23:02:27.324Z,144.40
2019-02-25T23:04:56.343Z,144.47
2019-02-25T23:07:26.901Z,154.60
2019-02-25T23:09:56.292Z,159.53
2019-02-25T23:12:27.225Z,149.30
2019-02-25T23:14:58.755Z,161.10
2019-02-25T23:17:31.078Z,189.20
2019-02-25T23:20:00.164Z,169.27
2019-02-25T23:22:30.279Z,149.03
2019-02-25T23:25:00.583Z,170.43
2019-02-25T23:27:32.257Z,174.20
2019-02-25T23:30:02.161Z,181.77
2019-02-25T23:32:31.888Z,190.53
2019-02-25T23:35:01.230Z,209.30
2019-02-25T23:37:30.700Z,202.03
2019-02-25T23:40:04.212Z,215.67
2019-02-25T23:42:33.010Z,233.47
2019-02-25T23:45:04.105Z,206.20
2019-02-25T23:47:35.371Z,207.20
2019-02-25T23:50:08.832Z,199.57
2019-02-25T23:52:38.139Z,177.70
2019-02-25T23:55:12.317Z,190.43
2019-02-25T23:57:41.290Z,189.50
